Time;durP1;ratioP1;P1;durP2;ratioP2;P2;SDS_P1;SDS_P2;PMS_P1;PMS_P2;Temp;Humidity;BMP_temperature;BMP_pressure;BME280_temperature;BME280_humidity;BME280_pressure;Samples;Min_cycle;Max_cycle;Signal;HPM_P1;HPM_P2
2024/04/16 00:02:24;;;;;;;;;;;;;;;21.25;43.71;94899.34;11332502;25;2917;-62
2024/04/16 00:07:24;;;;;;;;;;;;;;;21.25;43.87;94890.66;11367325;25;2901;-61
2024/04/16 00:12:25;;;;;;;;;;;;;;;21.23;43.72;94883.06;11398497;25;3089;-63
2024/04/16 00:17:27;;;;;;;;;;;;;;;21.23;43.53;94883.06;11358685;25;3201;-62
2024/04/16 00:22:27;;;;;;;;;;;;;;;21.22;43.47;94872.81;11387878;25;2892;-63
2024/04/16 00:27:28;;;;;;;;;;;;;;;21.22;43.78;94851.72;11388635;25;2948;-63
2024/04/16 00:32:28;;;;;;;;;;;;;;;21.21;43.72;94858.06;11396185;25;2806;-62
2024/04/16 00:37:28;;;;;;;;;;;;;;;21.21;43.54;94845.66;11359897;25;3071;-62
2024/04/16 00:42:29;;;;;;;;;;;;;;;21.21;43.14;94847.53;11370393;25;3016;-65
2024/04/16 00:47:29;;;;;;;;;;;;;;;21.20;43.20;94859.94;11337289;26;2992;-63
2024/04/16 00:52:30;;;;;;;;;;;;;;;21.19;43.35;94837.28;11394533;25;2960;-63
2024/04/16 00:57:30;;;;;;;;;;;;;;;21.18;43.10;94838.38;11355248;25;3019;-63
2024/04/16 01:02:30;;;;;;;;;;;;;;;21.18;43.23;94819.94;11392927;25;3208;-63
2024/04/16 01:07:30;;;;;;;;;;;;;;;21.16;43.32;94811.53;11352834;25;3235;-63
2024/04/16 01:12:31;;;;;;;;;;;;;;;21.16;42.92;94819.44;11328568;25;3037;-63
2024/04/16 01:17:31;;;;;;;;;;;;;;;21.16;43.22;94818.66;11333141;25;3121;-62
2024/04/16 01:22:32;;;;;;;;;;;;;;;21.15;43.11;94828.41;11330765;25;2982;-62
2024/04/16 01:27:32;;;;;;;;;;;;;;;21.16;43.10;94834.47;11396130;25;3294;-64
2024/04/16 01:32:32;;;;;;;;;;;;;;;21.15;43.02;94840.81;11390524;25;3017;-63
2024/04/16 01:37:33;;;;;;;;;;;;;;;21.15;43.16;94848.72;11388982;25;3213;-63
2024/04/16 01:42:33;;;;;;;;;;;;;;;21.13;42.60;94856.13;11360398;25;2909;-63
2024/04/16 01:47:33;;;;;;;;;;;;;;;21.13;42.99;94856.13;11367928;25;3022;-63
2024/04/16 01:52:33;;;;;;;;;;;;;;;21.12;43.17;94844.06;11343287;25;2968;-63
2024/04/16 01:57:35;;;;;;;;;;;;;;;21.12;42.94;94846.69;11332860;25;3090;-63
2024/04/16 02:02:35;;;;;;;;;;;;;;;21.11;42.81;94839.84;11388698;25;3080;-63
2024/04/16 02:07:36;;;;;;;;;;;;;;;21.12;42.60;94833.53;11367523;25;3075;-63
2024/04/16 02:12:36;;;;;;;;;;;;;;;21.11;42.52;94853.03;11380655;25;3190;-63
2024/04/16 02:17:37;;;;;;;;;;;;;;;21.09;42.33;94845.44;11388234;25;3119;-63
2024/04/16 02:22:37;;;;;;;;;;;;;;;21.08;42.38;94835.19;11359438;25;3192;-63
2024/04/16 02:27:38;;;;;;;;;;;;;;;21.08;42.40;94843.09;11354769;25;3223;-63
2024/04/16 02:32:38;;;;;;;;;;;;;;;21.06;42.63;94841.53;11365189;25;3228;-63
2024/04/16 02:37:38;;;;;;;;;;;;;;;21.06;42.23;94825.72;11357254;25;3219;-63
2024/04/16 02:42:39;;;;;;;;;;;;;;;21.05;42.60;94826.81;11356789;25;3151;-63
2024/04/16 02:47:39;;;;;;;;;;;;;;;21.05;42.15;94839.97;11357676;25;3142;-63
2024/04/16 02:52:39;;;;;;;;;;;;;;;21.04;42.49;94875.28;11391750;25;3097;-63
2024/04/16 02:57:39;;;;;;;;;;;;;;;21.03;42.00;94863.22;11354365;25;2980;-63
2024/04/16 03:02:40;;;;;;;;;;;;;;;21.02;42.16;94866.91;11351934;25;2969;-63
2024/04/16 03:07:43;;;;;;;;;;;;;;;21.02;42.00;94874.03;11388898;25;3114;-63
2024/04/16 03:12:43;;;;;;;;;;;;;;;21.01;41.96;94881.16;11388846;25;2955;-63
2024/04/16 03:17:44;;;;;;;;;;;;;;;21.00;42.03;94879.56;11355857;25;3175;-63
2024/04/16 03:22:44;;;;;;;;;;;;;;;21.00;42.02;94863.75;11388799;25;2952;-64
2024/04/16 03:27:44;;;;;;;;;;;;;;;20.99;41.66;94864.84;11361971;25;3196;-66
2024/04/16 03:32:44;;;;;;;;;;;;;;;20.98;41.98;94868.56;11397378;25;2972;-64
2024/04/16 03:37:46;;;;;;;;;;;;;;;20.98;41.63;94870.41;11364865;25;3008;-63
2024/04/16 03:42:47;;;;;;;;;;;;;;;20.97;41.81;94874.91;11336827;25;2988;-64
2024/04/16 03:47:47;;;;;;;;;;;;;;;20.96;41.74;94889.16;11366847;25;3202;-63
2024/04/16 03:52:47;;;;;;;;;;;;;;;20.96;41.76;94877.81;11365997;25;3009;-63
2024/04/16 03:57:48;;;;;;;;;;;;;;;20.94;41.79;94886.03;11395961;25;2817;-63
2024/04/16 04:02:48;;;;;;;;;;;;;;;20.94;41.46;94891.28;11343865;25;3112;-63
2024/04/16 04:07:48;;;;;;;;;;;;;;;20.93;41.57;94889.75;11366689;25;3188;-63
2024/04/16 04:12:48;;;;;;;;;;;;;;;20.92;41.43;94900.56;11331543;25;3007;-63
2024/04/16 04:17:49;;;;;;;;;;;;;;;20.92;41.22;94890.03;11362574;25;3117;-64
2024/04/16 04:22:49;;;;;;;;;;;;;;;20.91;41.01;94888.47;11375215;25;3211;-63
2024/04/16 04:27:49;;;;;;;;;;;;;;;20.91;40.85;94886.63;11367008;25;2971;-63
2024/04/16 04:32:50;;;;;;;;;;;;;;;20.89;40.68;94880.88;11404938;25;2838;-63
2024/04/16 04:37:50;;;;;;;;;;;;;;;20.89;40.44;94880.09;11371711;25;3196;-63
2024/04/16 04:42:50;;;;;;;;;;;;;;;20.88;40.75;94889.84;11405956;25;3205;-62
2024/04/16 04:47:50;;;;;;;;;;;;;;;20.88;40.74;94889.06;11401953;25;3082;-63
2024/04/16 04:52:51;;;;;;;;;;;;;;;20.86;40.36;94881.47;11400750;25;3095;-63
2024/04/16 04:57:51;;;;;;;;;;;;;;;20.86;40.26;94893.84;11372344;25;3309;-63
2024/04/16 05:02:51;;;;;;;;;;;;;;;20.86;40.18;94896.47;11328327;25;3049;-63
2024/04/16 05:07:51;;;;;;;;;;;;;;;20.85;40.75;94895.72;11369980;25;3095;-63
2024/04/16 05:12:52;;;;;;;;;;;;;;;20.85;40.97;94902.84;11337627;25;3109;-61
2024/04/16 05:17:53;;;;;;;;;;;;;;;20.84;41.19;94904.69;11399841;25;3101;-61
2024/04/16 05:22:53;;;;;;;;;;;;;;;20.85;41.04;94913.38;11373177;25;3052;-62
2024/04/16 05:27:53;;;;;;;;;;;;;;;20.85;40.98;94903.63;11332577;25;3196;-63
2024/04/16 05:32:53;;;;;;;;;;;;;;;20.86;41.12;94930.72;11405311;25;3064;-67
2024/04/16 05:37:54;;;;;;;;;;;;;;;20.85;40.73;94916.78;11402204;25;2814;-65
2024/04/16 05:42:54;;;;;;;;;;;;;;;20.84;40.56;94912.59;11392727;25;2952;-64
2024/04/16 05:47:54;;;;;;;;;;;;;;;20.84;40.70;94912.59;11374412;25;3128;-64
2024/04/16 05:52:54;;;;;;;;;;;;;;;20.84;40.70;94915.22;11364418;25;3222;-64
2024/04/16 05:57:55;;;;;;;;;;;;;;;20.84;41.04;94914.44;11396720;25;2993;-63
2024/04/16 06:02:55;;;;;;;;;;;;;;;20.82;40.64;94911.31;11395972;25;3153;-64
2024/04/16 06:07:56;;;;;;;;;;;;;;;20.82;40.58;94927.13;11358757;25;3000;-64
2024/04/16 06:12:56;;;;;;;;;;;;;;;20.81;40.27;94922.94;11335323;25;3092;-64
2024/04/16 06:17:56;;;;;;;;;;;;;;;20.79;40.26;94910.03;11393243;25;3053;-64
2024/04/16 06:22:57;;;;;;;;;;;;;;;20.79;40.05;94912.69;11361273;25;3272;-64
2024/04/16 06:27:57;;;;;;;;;;;;;;;20.78;39.92;94913.75;11386380;25;3189;-64
2024/04/16 06:32:57;;;;;;;;;;;;;;;20.78;39.66;94907.72;11395137;25;2905;-64
2024/04/16 06:37:58;;;;;;;;;;;;;;;20.77;39.79;94921.97;11350868;25;3108;-64
2024/04/16 06:42:58;;;;;;;;;;;;;;;20.76;39.68;94917.75;11390529;25;2932;-65
2024/04/16 06:47:59;;;;;;;;;;;;;;;20.74;39.74;94918.06;11339794;25;2907;-64
2024/04/16 06:52:59;;;;;;;;;;;;;;;20.74;39.51;94930.44;11391847;25;3318;-64
2024/04/16 06:58:00;;;;;;;;;;;;;;;20.74;39.69;94933.88;11387761;25;3119;-65
2024/04/16 07:03:00;;;;;;;;;;;;;;;20.72;39.41;94922.84;11329389;25;3012;-65
2024/04/16 07:08:01;;;;;;;;;;;;;;;20.72;39.43;94920.22;11366229;25;2896;-64
2024/04/16 07:13:01;;;;;;;;;;;;;;;20.71;39.23;94918.63;11371336;25;3134;-65
2024/04/16 07:18:01;;;;;;;;;;;;;;;20.72;39.61;94908.88;11388234;25;2989;-65
2024/04/16 07:23:02;;;;;;;;;;;;;;;20.70;39.31;94917.09;11397903;25;2971;-65
2024/04/16 07:28:02;;;;;;;;;;;;;;;20.69;39.50;94914.75;11365733;25;3066;-65
2024/04/16 07:33:03;;;;;;;;;;;;;;;20.69;39.06;94917.41;11338995;26;3145;-64
2024/04/16 07:38:03;;;;;;;;;;;;;;;20.68;38.99;94911.34;11363314;25;3107;-64
2024/04/16 07:43:04;;;;;;;;;;;;;;;20.66;39.11;94915.34;11398803;25;3178;-64
2024/04/16 07:48:04;;;;;;;;;;;;;;;20.65;39.15;94929.59;11369878;25;3073;-64
2024/04/16 07:53:04;;;;;;;;;;;;;;;20.64;38.59;94923.53;11367028;25;3225;-64
2024/04/16 07:58:05;;;;;;;;;;;;;;;20.61;39.06;94926.75;11398004;25;2950;-64
2024/04/16 08:03:07;;;;;;;;;;;;;;;20.61;39.11;94923.34;11399468;25;3486;-65
2024/04/16 08:08:07;;;;;;;;;;;;;;;20.60;39.17;94933.09;11394984;25;3080;-64
2024/04/16 08:13:07;;;;;;;;;;;;;;;20.59;39.00;94928.09;11362992;25;2966;-65
2024/04/16 08:18:10;;;;;;;;;;;;;;;20.60;39.03;94927.03;11366004;25;3009;-64
2024/04/16 08:23:10;;;;;;;;;;;;;;;20.59;39.09;94915.72;11364251;25;3100;-64
2024/04/16 08:28:11;;;;;;;;;;;;;;;20.59;38.81;94914.94;11392089;25;3140;-64
2024/04/16 08:33:16;;;;;;;;;;;;;;;20.59;39.40;94904.41;11400656;25;3128;-64
2024/04/16 08:38:17;;;;;;;;;;;;;;;20.58;38.91;94893.13;11401483;25;3190;-65
2024/04/16 08:43:17;;;;;;;;;;;;;;;20.56;38.81;94887.34;11396325;25;3015;-64
2024/04/16 08:48:17;;;;;;;;;;;;;;;20.57;38.88;94883.63;11360041;25;3259;-65
2024/04/16 08:53:18;;;;;;;;;;;;;;;20.57;39.48;94870.47;11394419;25;3042;-64
2024/04/16 08:58:18;;;;;;;;;;;;;;;20.57;39.74;94865.22;11368940;25;2920;-63
2024/04/16 09:03:18;;;;;;;;;;;;;;;20.57;39.40;94883.63;11360322;25;3324;-63
2024/04/16 09:08:19;;;;;;;;;;;;;;;20.57;39.08;94880.22;11393888;25;3180;-63
2024/04/16 09:13:19;;;;;;;;;;;;;;;20.55;39.33;94867.34;11367720;25;3386;-63
2024/04/16 09:18:23;;;;;;;;;;;;;;;20.54;39.39;94871.06;11362326;25;3292;-65
2024/04/16 09:23:23;;;;;;;;;;;;;;;20.54;38.98;94875.56;11401465;25;2818;-66
2024/04/16 09:28:24;;;;;;;;;;;;;;;20.52;39.55;94875.84;11394015;25;2759;-65
2024/04/16 09:33:30;;;;;;;;;;;;;;;20.53;39.72;94900.31;11387881;25;3372;-64
2024/04/16 09:38:39;;;;;;;;;;;;;;;20.53;39.51;94905.56;11365902;25;3015;-64
2024/04/16 09:43:42;;;;;;;;;;;;;;;20.52;39.62;94878.50;11357606;26;3096;-64
2024/04/16 09:48:42;;;;;;;;;;;;;;;20.51;38.88;94860.34;11360097;25;2961;-64
2024/04/16 09:53:43;;;;;;;;;;;;;;;20.51;39.79;94840.06;11395612;25;2841;-64
2024/04/16 09:58:49;;;;;;;;;;;;;;;20.52;39.20;94843.47;11357830;25;2932;-63
2024/04/16 10:03:50;;;;;;;;;;;;;;;20.49;38.60;94842.22;11357081;25;3086;-64
2024/04/16 10:08:50;;;;;;;;;;;;;;;20.49;39.00;94838.78;11358921;25;3220;-64
2024/04/16 10:13:54;;;;;;;;;;;;;;;20.51;38.78;94840.06;11361729;25;3002;-64
2024/04/16 10:18:56;;;;;;;;;;;;;;;20.51;39.13;94831.38;11359187;25;3113;-62
2024/04/16 10:24:00;;;;;;;;;;;;;;;20.50;39.07;94812.19;11356802;25;3116;-64
2024/04/16 10:29:01;;;;;;;;;;;;;;;20.49;39.58;94818.50;11387706;25;3096;-64
2024/04/16 10:34:01;;;;;;;;;;;;;;;20.49;39.43;94829.03;11397355;25;3204;-64
2024/04/16 10:39:11;;;;;;;;;;;;;;;20.49;39.37;94807.19;11393352;25;2964;-64
2024/04/16 10:44:11;;;;;;;;;;;;;;;20.47;39.07;94818.03;11368352;25;3229;-65
2024/04/16 10:49:14;;;;;;;;;;;;;;;20.46;38.79;94795.44;11364341;25;3207;-65
2024/04/16 10:54:15;;;;;;;;;;;;;;;20.45;39.03;94803.59;11404441;25;3199;-64
2024/04/16 10:59:15;;;;;;;;;;;;;;;20.45;38.59;94793.84;11334842;25;3109;-64
2024/04/16 11:04:19;;;;;;;;;;;;;;;20.45;38.32;94790.44;11361541;25;3005;-64
2024/04/16 11:09:22;;;;;;;;;;;;;;;20.43;38.54;94813.66;11358422;25;3122;-64
2024/04/16 11:14:23;;;;;;;;;;;;;;;20.42;38.24;94785.78;11390396;25;3103;-64
2024/04/16 11:19:24;;;;;;;;;;;;;;;20.41;38.85;94768.41;11364742;25;3088;-64
2024/04/16 11:24:24;;;;;;;;;;;;;;;20.41;38.97;94771.03;11358862;25;3096;-64
2024/04/16 11:29:24;;;;;;;;;;;;;;;20.41;38.54;94753.41;11370993;25;3080;-64
2024/04/16 11:34:24;;;;;;;;;;;;;;;20.41;38.69;94750.78;11360535;25;3107;-64
2024/04/16 11:39:28;;;;;;;;;;;;;;;20.41;38.46;94749.97;11364592;25;3000;-64
2024/04/16 11:44:28;;;;;;;;;;;;;;;20.41;38.34;94737.63;11358643;25;3086;-65
2024/04/16 11:49:30;;;;;;;;;;;;;;;20.41;38.47;94745.50;11362355;26;3014;-64
2024/04/16 11:54:35;;;;;;;;;;;;;;;20.40;38.67;94751.06;11393741;25;3171;-64
2024/04/16 11:59:35;;;;;;;;;;;;;;;20.39;38.17;94712.66;11363297;25;3095;-65
2024/04/16 12:04:35;;;;;;;;;;;;;;;20.38;38.46;94714.50;11356737;25;2937;-64
2024/04/16 12:09:35;;;;;;;;;;;;;;;20.39;38.24;94723.97;11361798;25;3092;-64
2024/04/16 12:14:36;;;;;;;;;;;;;;;20.37;38.84;94702.44;11326981;25;3291;-64
2024/04/16 12:19:36;;;;;;;;;;;;;;;20.37;38.12;94688.47;11362504;25;3111;-64
2024/04/16 12:24:37;;;;;;;;;;;;;;;20.38;38.28;94672.38;11398300;25;3109;-64
2024/04/16 12:29:37;;;;;;;;;;;;;;;20.38;38.39;94680.28;11358383;25;3130;-64
2024/04/16 12:34:37;;;;;;;;;;;;;;;20.38;38.19;94659.22;11400508;25;3312;-64
2024/04/16 12:39:37;;;;;;;;;;;;;;;20.36;38.51;94642.97;11355311;25;3069;-64
2024/04/16 12:44:38;;;;;;;;;;;;;;;20.38;38.06;94635.53;11388041;25;3016;-65
2024/04/16 12:49:38;;;;;;;;;;;;;;;20.39;38.33;94631.84;11389813;25;3077;-65
2024/04/16 12:54:40;;;;;;;;;;;;;;;20.40;38.26;94614.22;11331715;25;3433;-64
2024/04/16 12:59:40;;;;;;;;;;;;;;;20.40;38.89;94615.00;11358195;25;2992;-64
2024/04/16 13:04:41;;;;;;;;;;;;;;;20.39;38.47;94588.94;11356065;25;2990;-65
2024/04/16 13:09:41;;;;;;;;;;;;;;;20.41;38.72;94584.16;11357767;25;3131;-64
2024/04/16 13:14:42;;;;;;;;;;;;;;;20.40;38.49;94586.03;11335591;25;3177;-64
2024/04/16 13:19:46;;;;;;;;;;;;;;;20.40;38.60;94574.72;11361332;25;3103;-65
2024/04/16 13:24:46;;;;;;;;;;;;;;;20.39;38.53;94578.41;11331634;25;3047;-65
2024/04/16 13:29:46;;;;;;;;;;;;;;;20.39;38.40;94578.41;11389512;25;2809;-64
2024/04/16 13:34:47;;;;;;;;;;;;;;;20.38;38.22;94577.63;11388986;25;3061;-65
2024/04/16 13:39:47;;;;;;;;;;;;;;;20.39;38.29;94573.16;11393612;25;2990;-65
2024/04/16 13:44:49;;;;;;;;;;;;;;;20.39;38.24;94563.41;11388147;25;3414;-65
2024/04/16 13:49:51;;;;;;;;;;;;;;;20.38;38.46;94569.75;11357686;25;3112;-65
2024/04/16 13:54:51;;;;;;;;;;;;;;;20.37;37.97;94565.56;11393510;25;3015;-63
2024/04/16 13:59:52;;;;;;;;;;;;;;;20.36;38.38;94564.00;11357969;25;2949;-64
2024/04/16 14:04:52;;;;;;;;;;;;;;;20.36;38.50;94544.81;11389478;25;3197;-64
2024/04/16 14:09:52;;;;;;;;;;;;;;;20.35;38.27;94565.09;11359944;25;3223;-64
2024/04/16 14:14:52;;;;;;;;;;;;;;;20.36;38.04;94547.47;11358246;25;3005;-63
2024/04/16 14:19:53;;;;;;;;;;;;;;;20.34;37.80;94534.56;11355581;25;3113;-64
2024/04/16 14:24:53;;;;;;;;;;;;;;;20.34;38.10;94537.22;11355252;25;3172;-64
2024/04/16 14:29:54;;;;;;;;;;;;;;;20.34;38.57;94549.59;11355437;25;3378;-64
2024/04/16 14:34:54;;;;;;;;;;;;;;;20.33;38.17;94551.47;11387311;25;3070;-64
2024/04/16 14:39:54;;;;;;;;;;;;;;;20.32;38.04;94544.63;11366590;25;3089;-64
2024/04/16 14:44:54;;;;;;;;;;;;;;;20.32;37.51;94542.00;11360778;25;3193;-64
2024/04/16 14:49:56;;;;;;;;;;;;;;;20.30;37.36;94523.09;11382080;25;3075;-64
2024/04/16 14:54:56;;;;;;;;;;;;;;;20.30;37.62;94535.50;11356206;25;3088;-65
2024/04/16 14:59:56;;;;;;;;;;;;;;;20.29;37.68;94532.09;11388337;25;3199;-65
2024/04/16 15:04:56;;;;;;;;;;;;;;;20.28;37.52;94514.72;11393471;25;2969;-64
2024/04/16 15:09:57;;;;;;;;;;;;;;;20.27;37.40;94527.13;11355705;25;3126;-64
2024/04/16 15:14:57;;;;;;;;;;;;;;;20.26;37.54;94509.00;11352428;25;2965;-64
2024/04/16 15:19:57;;;;;;;;;;;;;;;20.24;37.35;94519.03;11357530;25;3032;-64
2024/04/16 15:24:58;;;;;;;;;;;;;;;20.23;37.47;94528.03;11324301;25;3093;-64
2024/04/16 15:29:58;;;;;;;;;;;;;;;20.23;37.67;94538.56;11391626;25;3199;-65
2024/04/16 15:34:58;;;;;;;;;;;;;;;20.23;37.50;94522.75;11392029;25;2982;-65
2024/04/16 15:39:58;;;;;;;;;;;;;;;20.22;37.73;94542.25;11366128;25;2985;-64
2024/04/16 15:44:59;;;;;;;;;;;;;;;20.21;37.83;94543.34;11366236;25;3142;-64
2024/04/16 15:49:59;;;;;;;;;;;;;;;20.20;37.17;94539.13;11364577;25;3179;-64
2024/04/16 15:54:59;;;;;;;;;;;;;;;20.18;36.73;94557.81;11396976;25;3110;-64
2024/04/16 15:59:59;;;;;;;;;;;;;;;20.17;37.18;94547.63;11339684;25;3200;-64
2024/04/16 16:05:00;;;;;;;;;;;;;;;20.16;37.04;94557.34;11358063;25;3005;-64
2024/04/16 16:10:00;;;;;;;;;;;;;;;20.16;37.42;94543.41;11361718;25;2981;-64
2024/04/16 16:15:01;;;;;;;;;;;;;;;20.15;37.09;94541.88;11331628;25;3059;-64
2024/04/16 16:20:01;;;;;;;;;;;;;;;20.14;37.02;94537.66;11363397;25;3089;-64
2024/04/16 16:25:01;;;;;;;;;;;;;;;20.14;37.39;94540.31;11396020;25;3157;-64
2024/04/16 16:30:02;;;;;;;;;;;;;;;20.13;37.04;94538.75;11399821;25;3130;-64
2024/04/16 16:35:04;;;;;;;;;;;;;;;20.13;37.29;94530.88;11361481;25;3075;-64
2024/04/16 16:40:04;;;;;;;;;;;;;;;20.12;36.77;94545.09;11363332;25;3759;-64
2024/04/16 16:45:06;;;;;;;;;;;;;;;20.12;37.05;94522.19;11365763;25;2932;-62
2024/04/16 16:50:07;;;;;;;;;;;;;;;20.13;36.83;94517.72;11340819;25;2932;-62
2024/04/16 16:55:09;;;;;;;;;;;;;;;20.08;36.03;94515.19;11390044;25;3114;-63
2024/04/16 17:00:10;;;;;;;;;;;;;;;20.07;36.15;94518.91;11394010;25;3178;-63
2024/04/16 17:05:10;;;;;;;;;;;;;;;20.07;36.22;94524.19;11400163;25;3087;-65
2024/04/16 17:10:10;;;;;;;;;;;;;;;20.07;36.62;94524.19;11402526;25;3221;-63
2024/04/16 17:15:10;;;;;;;;;;;;;;;20.07;36.53;94521.53;11371151;25;2978;-64
2024/04/16 17:20:11;;;;;;;;;;;;;;;20.07;36.38;94514.41;11382817;25;3134;-63
2024/04/16 17:25:11;;;;;;;;;;;;;;;20.07;37.06;94526.81;11356065;25;3085;-62
2024/04/16 17:30:12;;;;;;;;;;;;;;;20.08;36.62;94513.34;11363107;25;3101;-60
2024/04/16 17:35:15;;;;;;;;;;;;;;;20.14;37.12;94532.41;11336295;25;3101;-59
2024/04/16 17:40:17;;;;;;;;;;;;;;;20.19;37.13;94546.28;11366553;25;3006;-64
2024/04/16 17:45:17;;;;;;;;;;;;;;;20.23;37.74;94549.84;11392986;25;3183;-62
2024/04/16 17:50:19;;;;;;;;;;;;;;;20.26;37.55;94549.25;11343650;25;3115;-63
2024/04/16 17:55:19;;;;;;;;;;;;;;;20.31;37.94;94550.97;11381510;25;3092;-62
2024/04/16 18:00:19;;;;;;;;;;;;;;;20.40;37.34;94566.84;11356006;25;3171;-62
2024/04/16 18:05:19;;;;;;;;;;;;;;;20.48;36.70;94566.88;11355782;25;2928;-63
2024/04/16 18:10:20;;;;;;;;;;;;;;;20.60;36.09;94575.00;11328651;25;2982;-63
2024/04/16 18:15:22;;;;;;;;;;;;;;;20.64;35.75;94578.59;11380922;25;2978;-62
2024/04/16 18:20:23;;;;;;;;;;;;;;;20.68;35.62;94579.53;11356959;25;3247;-62
2024/04/16 18:25:23;;;;;;;;;;;;;;;20.73;35.94;94587.28;11361620;25;3124;-61
2024/04/16 18:30:23;;;;;;;;;;;;;;;20.79;35.91;94587.97;11344990;25;3232;-62
2024/04/16 18:35:24;;;;;;;;;;;;;;;20.87;35.90;94589.88;11390561;25;3101;-61
2024/04/16 18:40:24;;;;;;;;;;;;;;;20.90;35.38;94594.50;11395168;25;3097;-60
2024/04/16 18:45:24;;;;;;;;;;;;;;;20.95;35.29;94595.19;11357304;25;2963;-63
2024/04/16 18:50:25;;;;;;;;;;;;;;;20.98;35.86;94593.78;11404568;25;3079;-62
2024/04/16 18:55:25;;;;;;;;;;;;;;;21.04;35.29;94603.91;11419962;25;1886;-63
2024/04/16 19:00:25;;;;;;;;;;;;;;;21.10;35.27;94601.16;11328170;25;2101;-63
2024/04/16 19:05:25;;;;;;;;;;;;;;;21.12;35.24;94599.78;11355499;25;2123;-64
2024/04/16 19:10:26;;;;;;;;;;;;;;;21.15;35.46;94606.28;11360083;25;1913;-62
2024/04/16 19:15:27;;;;;;;;;;;;;;;21.17;35.15;94620.72;11433250;25;3072;-63
2024/04/16 19:20:28;;;;;;;;;;;;;;;21.23;34.78;94616.06;11388110;25;1999;-65
2024/04/16 19:25:28;;;;;;;;;;;;;;;21.24;35.14;94617.63;11410263;25;1931;-64
2024/04/16 19:30:28;;;;;;;;;;;;;;;21.28;35.17;94629.91;11345445;25;2088;-63
2024/04/16 19:35:29;;;;;;;;;;;;;;;21.33;34.51;94626.38;11374858;25;1914;-63
2024/04/16 19:40:29;;;;;;;;;;;;;;;21.32;34.63;94632.72;11412057;25;1649;-62
2024/04/16 19:45:29;;;;;;;;;;;;;;;21.29;34.21;94631.44;11389708;25;1928;-69
2024/04/16 19:50:30;;;;;;;;;;;;;;;21.28;34.68;94622.00;11401307;25;1992;-63
2024/04/16 19:55:30;;;;;;;;;;;;;;;21.29;34.42;94628.06;11403501;25;3000;-63
2024/04/16 20:00:31;;;;;;;;;;;;;;;21.26;34.54;94620.75;11351661;25;2135;-62
2024/04/16 20:05:34;;;;;;;;;;;;;;;21.23;34.43;94616.84;11377789;25;1933;-63
2024/04/16 20:10:42;;;;;;;;;;;;;;;21.24;34.42;94621.06;11372058;25;1950;-63
2024/04/16 20:15:42;;;;;;;;;;;;;;;21.23;34.72;94616.06;11405009;25;1968;-63
2024/04/16 20:20:44;;;;;;;;;;;;;;;21.20;34.62;94627.22;11365569;25;1578;-63
2024/04/16 20:25:44;;;;;;;;;;;;;;;21.17;34.82;94619.91;11365994;25;1983;-62
2024/04/16 20:30:53;;;;;;;;;;;;;;;21.18;35.25;94626.75;11399936;25;1859;-62
2024/04/16 20:35:53;;;;;;;;;;;;;;;21.20;35.57;94622.75;11396161;25;1803;-62
2024/04/16 20:40:53;;;;;;;;;;;;;;;21.13;35.13;94625.03;11364280;25;1790;-62
2024/04/16 20:45:54;;;;;;;;;;;;;;;21.12;35.47;94623.50;11367285;25;1692;-60
2024/04/16 20:50:54;;;;;;;;;;;;;;;21.11;35.50;94611.38;11402904;25;1855;-62
2024/04/16 20:55:54;;;;;;;;;;;;;;;21.08;35.17;94606.75;11389836;25;3345;-62
2024/04/16 21:00:57;;;;;;;;;;;;;;;21.14;33.90;94623.19;11378491;25;1814;-62
2024/04/16 21:05:57;;;;;;;;;;;;;;;21.20;33.50;94612.22;11404711;25;2115;-62
2024/04/16 21:10:58;;;;;;;;;;;;;;;21.31;33.30;94613.47;11371968;25;1875;-62
2024/04/16 21:15:59;;;;;;;;;;;;;;;21.22;34.54;94610.03;11410481;25;1708;-62
2024/04/16 21:20:59;;;;;;;;;;;;;;;21.26;32.76;94607.56;11346420;25;2046;-62
2024/04/16 21:25:59;;;;;;;;;;;;;;;21.30;33.23;94621.69;11358188;25;3139;-61
2024/04/16 21:30:59;;;;;;;;;;;;;;;21.16;33.46;94613.13;11390315;25;2900;-61
2024/04/16 21:36:00;;;;;;;;;;;;;;;21.11;33.30;94631.69;11358598;25;3193;-62
2024/04/16 21:41:00;;;;;;;;;;;;;;;20.92;33.86;94630.00;11326811;25;3275;-62
2024/04/16 21:46:00;;;;;;;;;;;;;;;20.85;34.15;94629.69;11352406;25;3004;-61
2024/04/16 21:51:00;;;;;;;;;;;;;;;20.80;33.67;94629.78;11391001;25;3240;-62
2024/04/16 21:56:03;;;;;;;;;;;;;;;20.77;33.34;94627.75;11359403;25;3201;-61
2024/04/16 22:01:04;;;;;;;;;;;;;;;20.68;33.76;94626.94;11354958;25;2978;-62
2024/04/16 22:06:04;;;;;;;;;;;;;;;20.63;34.33;94632.31;11364695;25;3117;-62
2024/04/16 22:11:04;;;;;;;;;;;;;;;20.59;34.30;94644.53;11357111;25;3113;-62
2024/04/16 22:16:05;;;;;;;;;;;;;;;20.57;34.21;94659.06;11362185;25;2943;-61
2024/04/16 22:21:05;;;;;;;;;;;;;;;20.54;34.33;94654.41;11358701;25;3100;-62
2024/04/16 22:26:06;;;;;;;;;;;;;;;20.50;34.00;94651.59;11354953;25;3092;-62
2024/04/16 22:31:06;;;;;;;;;;;;;;;20.48;34.39;94661.66;11325839;25;3110;-63
2024/04/16 22:36:07;;;;;;;;;;;;;;;20.45;34.82;94656.97;11369859;25;3274;-63
2024/04/16 22:41:07;;;;;;;;;;;;;;;20.41;34.46;94666.53;11343483;25;3008;-61
2024/04/16 22:46:09;;;;;;;;;;;;;;;20.40;33.96;94670.25;11400615;25;3230;-62
2024/04/16 22:51:10;;;;;;;;;;;;;;;20.38;34.17;94669.75;11370359;25;3112;-62
2024/04/16 22:56:10;;;;;;;;;;;;;;;20.35;34.18;94670.38;11403848;25;2961;-62
2024/04/16 23:01:10;;;;;;;;;;;;;;;20.34;34.25;94668.03;11397385;25;3221;-61
2024/04/16 23:06:11;;;;;;;;;;;;;;;20.32;34.15;94662.28;11412032;25;3092;-61
2024/04/16 23:11:11;;;;;;;;;;;;;;;20.30;34.17;94665.19;11333054;25;3212;-61
2024/04/16 23:16:12;;;;;;;;;;;;;;;20.28;34.16;94665.50;11364923;25;2980;-61
2024/04/16 23:21:12;;;;;;;;;;;;;;;20.25;34.27;94665.34;11372784;25;2932;-61
2024/04/16 23:26:12;;;;;;;;;;;;;;;20.24;34.53;94661.91;11397055;25;3184;-60
2024/04/16 23:31:13;;;;;;;;;;;;;;;20.24;34.18;94650.59;11397301;25;3112;-61
2024/04/16 23:36:13;;;;;;;;;;;;;;;20.22;34.13;94658.03;11333316;25;3182;-61
2024/04/16 23:41:13;;;;;;;;;;;;;;;20.20;34.35;94650.44;11396237;25;2927;-61
2024/04/16 23:46:13;;;;;;;;;;;;;;;20.19;34.27;94637.56;11400105;25;3229;-61
2024/04/16 23:51:14;;;;;;;;;;;;;;;20.16;34.07;94643.38;11364660;25;2977;-61
2024/04/16 23:56:14;;;;;;;;;;;;;;;20.16;34.15;94638.13;11359431;25;2903;-61
